sensor_id;sensor_type;location;lat;lon;timestamp;pressure;altitude;pressure_sealevel;temperature;humidity
11190;BME280;5651;50.926;4.718;2023-03-22T00:00:52;100870.69;;;11.39;100.00
11190;BME280;5651;50.926;4.718;2023-03-22T00:03:18;100868.97;;;11.36;100.00
11190;BME280;5651;50.926;4.718;2023-03-22T00:05:45;100875.03;;;11.38;100.00
11190;BME280;5651;50.926;4.718;2023-03-22T00:08:11;100868.13;;;11.33;100.00
11190;BME280;5651;50.926;4.718;2023-03-22T00:10:39;100869.00;;;11.32;100.00
11190;BME280;5651;50.926;4.718;2023-03-22T00:13:07;100858.59;;;11.25;100.00
11190;BME280;5651;50.926;4.718;2023-03-22T00:15:34;100862.94;;;11.26;100.00
11190;BME280;5651;50.926;4.718;2023-03-22T00:18:01;100861.16;;;11.30;100.00
11190;BME280;5651;50.926;4.718;2023-03-22T00:20:28;100852.47;;;11.31;100.00
11190;BME280;5651;50.926;4.718;2023-03-22T00:22:58;100848.16;;;11.29;100.00
11190;BME280;5651;50.926;4.718;2023-03-22T00:25:25;100842.09;;;11.28;100.00
11190;BME280;5651;50.926;4.718;2023-03-22T00:27:51;100845.50;;;11.36;100.00
11190;BME280;5651;50.926;4.718;2023-03-22T00:30:17;100842.00;;;11.36;100.00
11190;BME280;5651;50.926;4.718;2023-03-22T00:32:43;100842.88;;;11.36;100.00
11190;BME280;5651;50.926;4.718;2023-03-22T00:35:09;100841.06;;;11.43;100.00
11190;BME280;5651;50.926;4.718;2023-03-22T00:37:36;100829.84;;;11.33;100.00
11190;BME280;5651;50.926;4.718;2023-03-22T00:40:08;100824.69;;;11.29;100.00
11190;BME280;5651;50.926;4.718;2023-03-22T00:42:36;100818.63;;;11.25;100.00
11190;BME280;5651;50.926;4.718;2023-03-22T00:45:03;100810.78;;;11.28;100.00
11190;BME280;5651;50.926;4.718;2023-03-22T00:47:30;100812.47;;;11.29;100.00
11190;BME280;5651;50.926;4.718;2023-03-22T00:49:56;100809.88;;;11.31;100.00
11190;BME280;5651;50.926;4.718;2023-03-22T00:52:22;100801.22;;;11.27;100.00
11190;BME280;5651;50.926;4.718;2023-03-22T00:54:50;100813.34;;;11.34;100.00
11190;BME280;5651;50.926;4.718;2023-03-22T00:57:16;100804.59;;;11.37;100.00
11190;BME280;5651;50.926;4.718;2023-03-22T00:59:43;100801.97;;;11.40;100.00
11190;BME280;5651;50.926;4.718;2023-03-22T01:02:09;100802.06;;;11.28;100.00
11190;BME280;5651;50.926;4.718;2023-03-22T01:04:39;100790.72;;;11.36;100.00
11190;BME280;5651;50.926;4.718;2023-03-22T01:07:16;100798.59;;;11.27;100.00
11190;BME280;5651;50.926;4.718;2023-03-22T01:09:51;100786.47;;;11.21;100.00
11190;BME280;5651;50.926;4.718;2023-03-22T01:12:19;100785.53;;;11.29;100.00
11190;BME280;5651;50.926;4.718;2023-03-22T01:14:45;100772.56;;;11.22;100.00
11190;BME280;5651;50.926;4.718;2023-03-22T01:17:11;100770.78;;;11.28;100.00
11190;BME280;5651;50.926;4.718;2023-03-22T01:19:37;100762.09;;;11.24;100.00
11190;BME280;5651;50.926;4.718;2023-03-22T01:22:06;100756.94;;;11.21;100.00
11190;BME280;5651;50.926;4.718;2023-03-22T01:24:33;100752.56;;;11.24;100.00
11190;BME280;5651;50.926;4.718;2023-03-22T01:26:58;100757.69;;;11.29;100.00
11190;BME280;5651;50.926;4.718;2023-03-22T01:29:25;100745.63;;;11.19;100.00
11190;BME280;5651;50.926;4.718;2023-03-22T01:31:51;100741.34;;;11.12;100.00
11190;BME280;5651;50.926;4.718;2023-03-22T01:34:17;100738.72;;;11.16;100.00
11190;BME280;5651;50.926;4.718;2023-03-22T01:36:43;100737.84;;;11.14;100.00
11190;BME280;5651;50.926;4.718;2023-03-22T01:39:09;100731.75;;;11.15;100.00
11190;BME280;5651;50.926;4.718;2023-03-22T01:41:36;100735.22;;;11.16;100.00
11190;BME280;5651;50.926;4.718;2023-03-22T01:46:41;100726.53;;;11.17;100.00
11190;BME280;5651;50.926;4.718;2023-03-22T01:51:49;100724.81;;;11.11;100.00
11190;BME280;5651;50.926;4.718;2023-03-22T01:54:24;100727.50;;;11.05;100.00
11190;BME280;5651;50.926;4.718;2023-03-22T01:56:51;100723.13;;;11.07;100.00
11190;BME280;5651;50.926;4.718;2023-03-22T01:59:18;100729.19;;;11.10;100.00
11190;BME280;5651;50.926;4.718;2023-03-22T02:01:44;100727.50;;;11.06;100.00
11190;BME280;5651;50.926;4.718;2023-03-22T02:04:15;100714.50;;;11.00;100.00
11190;BME280;5651;50.926;4.718;2023-03-22T02:06:45;100720.53;;;11.04;100.00
11190;BME280;5651;50.926;4.718;2023-03-22T02:09:13;100725.78;;;11.02;100.00
11190;BME280;5651;50.926;4.718;2023-03-22T02:11:41;100717.97;;;10.99;100.00
11190;BME280;5651;50.926;4.718;2023-03-22T02:14:10;100718.88;;;10.97;100.00
11190;BME280;5651;50.926;4.718;2023-03-22T02:16:56;100713.75;;;10.87;100.00
11190;BME280;5651;50.926;4.718;2023-03-22T02:24:36;100713.81;;;10.76;100.00
11190;BME280;5651;50.926;4.718;2023-03-22T02:35:45;100701.63;;;10.80;100.00
11190;BME280;5651;50.926;4.718;2023-03-22T02:41:12;100698.16;;;10.83;100.00
11190;BME280;5651;50.926;4.718;2023-03-22T02:43:48;100692.03;;;10.85;100.00
11190;BME280;5651;50.926;4.718;2023-03-22T02:49:00;100678.16;;;10.82;100.00
11190;BME280;5651;50.926;4.718;2023-03-22T02:51:36;100672.09;;;10.80;100.00
11190;BME280;5651;50.926;4.718;2023-03-22T02:56:44;100669.34;;;10.97;100.00
11190;BME280;5651;50.926;4.718;2023-03-22T02:59:12;100656.34;;;10.92;100.00
11190;BME280;5651;50.926;4.718;2023-03-22T03:01:43;100655.41;;;10.99;100.00
11190;BME280;5651;50.926;4.718;2023-03-22T03:04:17;100648.47;;;11.00;100.00
11190;BME280;5651;50.926;4.718;2023-03-22T03:06:46;100634.66;;;10.88;100.00
11190;BME280;5651;50.926;4.718;2023-03-22T03:09:15;100635.47;;;10.92;100.00
11190;BME280;5651;50.926;4.718;2023-03-22T03:11:47;100641.56;;;10.94;100.00
11190;BME280;5651;50.926;4.718;2023-03-22T03:14:26;100629.44;;;10.88;100.00
11190;BME280;5651;50.926;4.718;2023-03-22T03:23:01;100645.81;;;11.03;100.00
11190;BME280;5651;50.926;4.718;2023-03-22T03:33:37;100648.47;;;10.97;100.00
11190;BME280;5651;50.926;4.718;2023-03-22T03:36:11;100653.72;;;10.95;100.00
11190;BME280;5651;50.926;4.718;2023-03-22T03:38:43;100651.16;;;10.90;100.00
11190;BME280;5651;50.926;4.718;2023-03-22T03:41:14;100646.91;;;10.82;100.00
11190;BME280;5651;50.926;4.718;2023-03-22T03:43:42;100649.47;;;10.86;100.00
11190;BME280;5651;50.926;4.718;2023-03-22T03:46:10;100650.31;;;10.87;100.00
11190;BME280;5651;50.926;4.718;2023-03-22T03:48:38;100650.28;;;10.88;100.00
11190;BME280;5651;50.926;4.718;2023-03-22T03:51:06;100653.72;;;10.92;100.00
11190;BME280;5651;50.926;4.718;2023-03-22T03:53:32;100658.94;;;10.93;100.00
11190;BME280;5651;50.926;4.718;2023-03-22T03:55:58;100652.84;;;10.93;100.00
11190;BME280;5651;50.926;4.718;2023-03-22T03:58:24;100652.91;;;10.88;100.00
11190;BME280;5651;50.926;4.718;2023-03-22T04:00:49;100659.97;;;10.74;100.00
11190;BME280;5651;50.926;4.718;2023-03-22T04:03:16;100648.66;;;10.78;100.00
11190;BME280;5651;50.926;4.718;2023-03-22T04:05:43;100651.19;;;10.87;100.00
11190;BME280;5651;50.926;4.718;2023-03-22T04:08:09;100646.00;;;10.84;100.00
11190;BME280;5651;50.926;4.718;2023-03-22T04:10:35;100648.66;;;10.78;100.00
11190;BME280;5651;50.926;4.718;2023-03-22T04:13:01;100646.84;;;10.85;100.00
11190;BME280;5651;50.926;4.718;2023-03-22T04:15:26;100654.69;;;10.80;100.00
11190;BME280;5651;50.926;4.718;2023-03-22T04:17:52;100653.00;;;10.77;100.00
11190;BME280;5651;50.926;4.718;2023-03-22T04:20:18;100646.09;;;10.70;100.00
11190;BME280;5651;50.926;4.718;2023-03-22T04:22:45;100640.06;;;10.67;100.00
11190;BME280;5651;50.926;4.718;2023-03-22T04:25:14;100654.72;;;10.82;100.00
11190;BME280;5651;50.926;4.718;2023-03-22T04:27:43;100652.16;;;10.75;100.00
11190;BME280;5651;50.926;4.718;2023-03-22T04:30:13;100642.59;;;10.74;100.00
11190;BME280;5651;50.926;4.718;2023-03-22T04:32:47;100650.41;;;10.76;100.00
11190;BME280;5651;50.926;4.718;2023-03-22T04:35:14;100649.56;;;10.75;100.00
11190;BME280;5651;50.926;4.718;2023-03-22T04:37:41;100641.75;;;10.69;100.00
11190;BME280;5651;50.926;4.718;2023-03-22T04:40:09;100650.41;;;10.76;100.00
11190;BME280;5651;50.926;4.718;2023-03-22T04:42:41;100642.56;;;10.77;100.00
11190;BME280;5651;50.926;4.718;2023-03-22T04:45:09;100635.53;;;10.86;100.00
11190;BME280;5651;50.926;4.718;2023-03-22T04:47:35;100636.44;;;10.83;100.00
11190;BME280;5651;50.926;4.718;2023-03-22T04:50:01;100643.44;;;10.80;100.00
11190;BME280;5651;50.926;4.718;2023-03-22T04:52:26;100639.94;;;10.84;100.00
11190;BME280;5651;50.926;4.718;2023-03-22T04:54:52;100648.59;;;10.87;100.00
11190;BME280;5651;50.926;4.718;2023-03-22T04:57:18;100639.00;;;10.88;100.00
11190;BME280;5651;50.926;4.718;2023-03-22T04:59:44;100645.16;;;10.84;100.00
11190;BME280;5651;50.926;4.718;2023-03-22T05:02:09;100633.00;;;10.80;100.00
11190;BME280;5651;50.926;4.718;2023-03-22T05:04:35;100638.19;;;10.83;100.00
11190;BME280;5651;50.926;4.718;2023-03-22T05:07:01;100638.22;;;10.80;100.00
11190;BME280;5651;50.926;4.718;2023-03-22T05:09:27;100646.88;;;10.83;100.00
11190;BME280;5651;50.926;4.718;2023-03-22T05:11:53;100642.53;;;10.82;100.00
11190;BME280;5651;50.926;4.718;2023-03-22T05:14:19;100645.19;;;10.79;100.00
11190;BME280;5651;50.926;4.718;2023-03-22T05:16:44;100642.50;;;10.87;100.00
11190;BME280;5651;50.926;4.718;2023-03-22T05:19:10;100654.66;;;10.85;100.00
11190;BME280;5651;50.926;4.718;2023-03-22T05:21:39;100651.13;;;10.92;100.00
11190;BME280;5651;50.926;4.718;2023-03-22T05:24:06;100659.88;;;10.88;100.00
11190;BME280;5651;50.926;4.718;2023-03-22T05:26:32;100653.00;;;10.79;100.00
11190;BME280;5651;50.926;4.718;2023-03-22T05:28:58;100659.06;;;10.83;100.00
11190;BME280;5651;50.926;4.718;2023-03-22T05:31:24;100648.69;;;10.73;100.00
11190;BME280;5651;50.926;4.718;2023-03-22T05:33:53;100665.19;;;10.75;100.00
11190;BME280;5651;50.926;4.718;2023-03-22T05:36:20;100648.81;;;10.59;100.00
11190;BME280;5651;50.926;4.718;2023-03-22T05:38:47;100650.53;;;10.60;100.00
11190;BME280;5651;50.926;4.718;2023-03-22T05:41:14;100652.19;;;10.71;100.00
11190;BME280;5651;50.926;4.718;2023-03-22T05:43:40;100650.38;;;10.77;100.00
11190;BME280;5651;50.926;4.718;2023-03-22T05:46:10;100663.44;;;10.79;100.00
11190;BME280;5651;50.926;4.718;2023-03-22T05:48:38;100655.66;;;10.71;100.00
11190;BME280;5651;50.926;4.718;2023-03-22T05:51:09;100651.31;;;10.70;100.00
11190;BME280;5651;50.926;4.718;2023-03-22T05:53:38;100659.13;;;10.73;100.00
11190;BME280;5651;50.926;4.718;2023-03-22T05:56:04;100663.44;;;10.73;100.00
11190;BME280;5651;50.926;4.718;2023-03-22T05:58:34;100666.09;;;10.70;100.00
11190;BME280;5651;50.926;4.718;2023-03-22T06:01:05;100657.38;;;10.72;100.00
11190;BME280;5651;50.926;4.718;2023-03-22T06:03:31;100659.97;;;10.77;100.00
11190;BME280;5651;50.926;4.718;2023-03-22T06:05:57;100662.56;;;10.77;100.00
11190;BME280;5651;50.926;4.718;2023-03-22T06:08:23;100666.91;;;10.76;100.00
11190;BME280;5651;50.926;4.718;2023-03-22T06:10:50;100663.41;;;10.77;100.00
11190;BME280;5651;50.926;4.718;2023-03-22T06:13:19;100660.06;;;10.65;100.00
11190;BME280;5651;50.926;4.718;2023-03-22T06:15:46;100659.16;;;10.69;100.00
11190;BME280;5651;50.926;4.718;2023-03-22T06:18:12;100657.38;;;10.72;100.00
11190;BME280;5651;50.926;4.718;2023-03-22T06:20:38;100663.41;;;10.77;100.00
11190;BME280;5651;50.926;4.718;2023-03-22T06:23:05;100657.38;;;10.75;100.00
11190;BME280;5651;50.926;4.718;2023-03-22T06:25:31;100651.25;;;10.76;100.00
11190;BME280;5651;50.926;4.718;2023-03-22T06:27:57;100661.66;;;10.80;100.00
11190;BME280;5651;50.926;4.718;2023-03-22T06:30:23;100657.34;;;10.78;100.00
11190;BME280;5651;50.926;4.718;2023-03-22T06:32:49;100662.47;;;10.88;100.00
11190;BME280;5651;50.926;4.718;2023-03-22T06:35:15;100660.78;;;10.84;100.00
11190;BME280;5651;50.926;4.718;2023-03-22T06:37:41;100659.09;;;10.78;99.67
11190;BME280;5651;50.926;4.718;2023-03-22T06:40:07;100659.97;;;10.74;100.00
11190;BME280;5651;50.926;4.718;2023-03-22T06:42:34;100656.44;;;10.83;98.83
11190;BME280;5651;50.926;4.718;2023-03-22T06:45:00;100660.78;;;10.82;98.92
11190;BME280;5651;50.926;4.718;2023-03-22T06:47:26;100651.31;;;10.73;98.96
11190;BME280;5651;50.926;4.718;2023-03-22T06:49:52;100654.72;;;10.78;98.78
11190;BME280;5651;50.926;4.718;2023-03-22T06:52:18;100654.78;;;10.75;99.19
11190;BME280;5651;50.926;4.718;2023-03-22T06:54:44;100659.91;;;10.82;99.78
11190;BME280;5651;50.926;4.718;2023-03-22T06:57:10;100648.56;;;10.89;99.31
11190;BME280;5651;50.926;4.718;2023-03-22T06:59:36;100651.16;;;10.90;99.45
11190;BME280;5651;50.926;4.718;2023-03-22T07:02:02;100642.41;;;10.96;99.43
11190;BME280;5651;50.926;4.718;2023-03-22T07:04:28;100653.78;;;10.89;99.70
11190;BME280;5651;50.926;4.718;2023-03-22T07:06:55;100645.06;;;10.88;99.58
11190;BME280;5651;50.926;4.718;2023-03-22T07:09:21;100648.59;;;10.87;99.51
11190;BME280;5651;50.926;4.718;2023-03-22T07:11:49;100654.63;;;10.91;99.32
11190;BME280;5651;50.926;4.718;2023-03-22T07:14:15;100645.09;;;10.87;98.88
11190;BME280;5651;50.926;4.718;2023-03-22T07:16:41;100650.41;;;10.73;99.54
11190;BME280;5651;50.926;4.718;2023-03-22T07:19:07;100664.16;;;10.93;98.28
11190;BME280;5651;50.926;4.718;2023-03-22T07:21:33;100647.59;;;10.98;97.86
11190;BME280;5651;50.926;4.718;2023-03-22T07:23:58;100645.91;;;10.93;98.20
11190;BME280;5651;50.926;4.718;2023-03-22T07:26:24;100659.81;;;10.94;98.01
11190;BME280;5651;50.926;4.718;2023-03-22T07:28:51;100650.19;;;10.99;97.17
11190;BME280;5651;50.926;4.718;2023-03-22T07:31:17;100651.03;;;11.04;97.35
11190;BME280;5651;50.926;4.718;2023-03-22T07:33:43;100645.69;;;11.17;96.29
11190;BME280;5651;50.926;4.718;2023-03-22T07:36:09;100650.81;;;11.26;95.80
11190;BME280;5651;50.926;4.718;2023-03-22T07:38:35;100644.66;;;11.32;95.60
11190;BME280;5651;50.926;4.718;2023-03-22T07:41:01;100636.72;;;11.43;96.00
11190;BME280;5651;50.926;4.718;2023-03-22T07:43:27;100642.72;;;11.48;95.27
11190;BME280;5651;50.926;4.718;2023-03-22T07:45:53;100641.81;;;11.52;94.17
11190;BME280;5651;50.926;4.718;2023-03-22T07:48:20;100635.56;;;11.64;93.78
11190;BME280;5651;50.926;4.718;2023-03-22T07:50:46;100639.03;;;11.66;94.30
11190;BME280;5651;50.926;4.718;2023-03-22T07:53:12;100629.25;;;11.83;93.58
11190;BME280;5651;50.926;4.718;2023-03-22T07:55:39;100642.22;;;11.89;91.17
11190;BME280;5651;50.926;4.718;2023-03-22T07:58:06;100642.25;;;11.86;92.74
11190;BME280;5651;50.926;4.718;2023-03-22T08:00:32;100653.44;;;11.95;91.11
11190;BME280;5651;50.926;4.718;2023-03-22T08:02:58;100646.50;;;11.95;92.27
11190;BME280;5651;50.926;4.718;2023-03-22T08:05:24;100669.03;;;12.04;91.26
11190;BME280;5651;50.926;4.718;2023-03-22T08:07:50;100664.78;;;11.97;90.25
11190;BME280;5651;50.926;4.718;2023-03-22T08:10:17;100665.50;;;12.08;90.81
11190;BME280;5651;50.926;4.718;2023-03-22T08:12:42;100666.28;;;12.15;91.38
11190;BME280;5651;50.926;4.718;2023-03-22T08:15:09;100665.41;;;12.13;91.86
11190;BME280;5651;50.926;4.718;2023-03-22T08:17:35;100683.53;;;12.27;89.98
11190;BME280;5651;50.926;4.718;2023-03-22T08:20:03;100661.78;;;12.26;88.95
11190;BME280;5651;50.926;4.718;2023-03-22T08:22:34;100655.81;;;12.15;89.63
11190;BME280;5651;50.926;4.718;2023-03-22T08:25:02;100653.19;;;12.18;89.14
11190;BME280;5651;50.926;4.718;2023-03-22T08:27:28;100669.72;;;12.17;89.84
11190;BME280;5651;50.926;4.718;2023-03-22T08:29:54;100655.81;;;12.15;89.49
11190;BME280;5651;50.926;4.718;2023-03-22T08:32:20;100657.59;;;12.13;89.08
11190;BME280;5651;50.926;4.718;2023-03-22T08:34:46;100648.91;;;12.12;89.87
11190;BME280;5651;50.926;4.718;2023-03-22T08:37:12;100656.75;;;12.11;89.95
11190;BME280;5651;50.926;4.718;2023-03-22T08:39:38;100651.44;;;12.17;89.53
11190;BME280;5651;50.926;4.718;2023-03-22T08:42:05;100657.56;;;12.16;90.59
11190;BME280;5651;50.926;4.718;2023-03-22T08:44:31;100654.03;;;12.18;90.37
11190;BME280;5651;50.926;4.718;2023-03-22T08:46:57;100654.78;;;12.27;90.65
11190;BME280;5651;50.926;4.718;2023-03-22T08:49:23;100662.47;;;12.38;89.60
11190;BME280;5651;50.926;4.718;2023-03-22T08:51:49;100642.34;;;12.43;89.77
11190;BME280;5651;50.926;4.718;2023-03-22T08:54:14;100644.03;;;12.47;88.10
11190;BME280;5651;50.926;4.718;2023-03-22T08:56:40;100637.00;;;12.50;88.14
11190;BME280;5651;50.926;4.718;2023-03-22T08:59:08;100634.28;;;12.57;88.83
11190;BME280;5651;50.926;4.718;2023-03-22T09:01:35;100644.63;;;12.64;88.63
11190;BME280;5651;50.926;4.718;2023-03-22T09:04:02;100642.66;;;12.79;87.66
11190;BME280;5651;50.926;4.718;2023-03-22T09:06:28;100631.44;;;12.71;86.53
11190;BME280;5651;50.926;4.718;2023-03-22T09:08:55;100619.06;;;12.80;87.12
11190;BME280;5651;50.926;4.718;2023-03-22T09:11:22;100632.91;;;12.86;86.36
11190;BME280;5651;50.926;4.718;2023-03-22T09:13:49;100629.34;;;12.91;86.07
11190;BME280;5651;50.926;4.718;2023-03-22T09:16:16;100635.41;;;12.92;85.27
11190;BME280;5651;50.926;4.718;2023-03-22T09:18:43;100632.84;;;12.90;85.70
11190;BME280;5651;50.926;4.718;2023-03-22T09:21:09;100643.25;;;12.93;86.23
11190;BME280;5651;50.926;4.718;2023-03-22T09:23:36;100623.19;;;12.94;86.20
11190;BME280;5651;50.926;4.718;2023-03-22T09:26:04;100628.56;;;12.86;87.36
11190;BME280;5651;50.926;4.718;2023-03-22T09:28:31;100621.47;;;12.93;86.39
11190;BME280;5651;50.926;4.718;2023-03-22T09:31:02;100617.19;;;12.89;85.67
11190;BME280;5651;50.926;4.718;2023-03-22T09:33:29;100634.31;;;13.07;85.48
11190;BME280;5651;50.926;4.718;2023-03-22T09:35:55;100607.16;;;13.12;84.52
11190;BME280;5651;50.926;4.718;2023-03-22T09:38:22;100626.41;;;13.08;84.64
11190;BME280;5651;50.926;4.718;2023-03-22T09:40:56;100620.38;;;13.06;83.13
11190;BME280;5651;50.926;4.718;2023-03-22T09:43:31;100622.19;;;13.03;83.67
11190;BME280;5651;50.926;4.718;2023-03-22T09:45:58;100620.53;;;12.95;84.70
11190;BME280;5651;50.926;4.718;2023-03-22T09:48:32;100617.06;;;12.95;84.17
11190;BME280;5651;50.926;4.718;2023-03-22T09:51:02;100636.00;;;13.09;84.03
11190;BME280;5651;50.926;4.718;2023-03-22T09:53:29;100613.63;;;12.94;84.21
11190;BME280;5651;50.926;4.718;2023-03-22T09:56:16;100621.38;;;12.97;83.75
11190;BME280;5651;50.926;4.718;2023-03-22T10:04:46;100614.22;;;13.07;83.86
11190;BME280;5651;50.926;4.718;2023-03-22T10:07:33;100617.03;;;12.98;83.70
11190;BME280;5651;50.926;4.718;2023-03-22T10:12:40;100612.81;;;12.89;84.14
11190;BME280;5651;50.926;4.718;2023-03-22T10:17:43;100619.50;;;13.06;84.57
11190;BME280;5651;50.926;4.718;2023-03-22T10:22:53;100616.72;;;13.15;83.88
11190;BME280;5651;50.926;4.718;2023-03-22T10:25:26;100606.50;;;13.03;83.28
11190;BME280;5651;50.926;4.718;2023-03-22T10:27:53;100605.56;;;13.04;84.68
11190;BME280;5651;50.926;4.718;2023-03-22T10:30:22;100603.16;;;12.94;84.97
11190;BME280;5651;50.926;4.718;2023-03-22T10:32:54;100612.63;;;13.00;86.23
11190;BME280;5651;50.926;4.718;2023-03-22T10:35:21;100615.44;;;12.89;87.00
11190;BME280;5651;50.926;4.718;2023-03-22T10:37:48;100619.91;;;12.82;88.83
11190;BME280;5651;50.926;4.718;2023-03-22T10:40:26;100617.44;;;12.75;89.77
11190;BME280;5651;50.926;4.718;2023-03-22T10:42:56;100604.53;;;12.64;88.78
11190;BME280;5651;50.926;4.718;2023-03-22T10:45:23;100615.09;;;12.58;90.64
11190;BME280;5651;50.926;4.718;2023-03-22T10:48:43;100609.81;;;12.62;90.45
11190;BME280;5651;50.926;4.718;2023-03-22T10:51:02;100611.50;;;12.65;91.01
11190;BME280;5651;50.926;4.718;2023-03-22T10:55:57;100617.66;;;12.62;91.94
11190;BME280;5651;50.926;4.718;2023-03-22T10:58:31;100625.53;;;12.59;91.67
11190;BME280;5651;50.926;4.718;2023-03-22T11:01:03;100616.09;;;12.50;93.02
11190;BME280;5651;50.926;4.718;2023-03-22T11:03:41;100613.03;;;12.77;91.73
11190;BME280;5651;50.926;4.718;2023-03-22T11:06:08;100614.78;;;12.78;91.45
11190;BME280;5651;50.926;4.718;2023-03-22T11:11:06;100599.84;;;12.83;92.54
11190;BME280;5651;50.926;4.718;2023-03-22T11:13:34;100604.97;;;12.89;93.04
11190;BME280;5651;50.926;4.718;2023-03-22T11:16:01;100592.63;;;12.97;91.31
11190;BME280;5651;50.926;4.718;2023-03-22T11:18:33;100592.72;;;12.91;91.51
11190;BME280;5651;50.926;4.718;2023-03-22T11:21:09;100586.56;;;12.94;92.02
11190;BME280;5651;50.926;4.718;2023-03-22T11:23:36;100581.00;;;13.12;90.20
11190;BME280;5651;50.926;4.718;2023-03-22T11:26:09;100578.34;;;13.14;89.96
11190;BME280;5651;50.926;4.718;2023-03-22T11:28:41;100604.25;;;13.28;89.60
11190;BME280;5651;50.926;4.718;2023-03-22T11:31:17;100581.59;;;13.27;88.90
11190;BME280;5651;50.926;4.718;2023-03-22T11:33:55;100578.97;;;13.27;87.97
11190;BME280;5651;50.926;4.718;2023-03-22T11:36:21;100581.44;;;13.35;89.40
11190;BME280;5651;50.926;4.718;2023-03-22T11:38:55;100574.25;;;13.46;88.90
11190;BME280;5651;50.926;4.718;2023-03-22T11:41:24;100584.03;;;13.36;87.48
11190;BME280;5651;50.926;4.718;2023-03-22T11:43:53;100580.63;;;13.32;88.23
11190;BME280;5651;50.926;4.718;2023-03-22T11:46:20;100595.34;;;13.37;87.90
11190;BME280;5651;50.926;4.718;2023-03-22T11:48:49;100585.94;;;13.28;87.75
11190;BME280;5651;50.926;4.718;2023-03-22T11:51:24;100591.25;;;13.23;87.86
11190;BME280;5651;50.926;4.718;2023-03-22T11:53:54;100585.31;;;13.15;88.05
11190;BME280;5651;50.926;4.718;2023-03-22T11:56:27;100592.03;;;13.28;88.19
11190;BME280;5651;50.926;4.718;2023-03-22T11:58:57;100590.19;;;13.32;88.28
11190;BME280;5651;50.926;4.718;2023-03-22T12:01:33;100581.63;;;13.25;88.88
11190;BME280;5651;50.926;4.718;2023-03-22T12:04:04;100586.56;;;13.41;88.48
11190;BME280;5651;50.926;4.718;2023-03-22T12:06:33;100584.88;;;13.37;88.46
11190;BME280;5651;50.926;4.718;2023-03-22T12:09:23;100573.63;;;13.33;90.08
11190;BME280;5651;50.926;4.718;2023-03-22T12:11:53;100569.03;;;13.44;90.27
11190;BME280;5651;50.926;4.718;2023-03-22T12:14:42;100549.97;;;13.38;91.72
11190;BME280;5651;50.926;4.718;2023-03-22T12:17:26;100544.69;;;13.41;92.38
11190;BME280;5651;50.926;4.718;2023-03-22T12:20:04;100573.28;;;13.52;90.53
11190;BME280;5651;50.926;4.718;2023-03-22T12:22:53;100549.56;;;13.58;89.96
11190;BME280;5651;50.926;4.718;2023-03-22T12:25:24;100536.78;;;13.83;88.98
11190;BME280;5651;50.926;4.718;2023-03-22T12:28:04;100519.41;;;13.79;88.25
11190;BME280;5651;50.926;4.718;2023-03-22T12:30:51;100562.88;;;13.88;87.17
11190;BME280;5651;50.926;4.718;2023-03-22T12:33:28;100547.38;;;13.78;88.15
11190;BME280;5651;50.926;4.718;2023-03-22T12:36:02;100552.19;;;13.95;87.73
11190;BME280;5651;50.926;4.718;2023-03-22T12:38:37;100553.72;;;14.06;86.99
11190;BME280;5651;50.926;4.718;2023-03-22T12:41:08;100566.06;;;14.01;86.40
11190;BME280;5651;50.926;4.718;2023-03-22T12:46:22;100564.59;;;13.89;87.46
11190;BME280;5651;50.926;4.718;2023-03-22T12:49:00;100553.19;;;13.91;87.48
11190;BME280;5651;50.926;4.718;2023-03-22T12:51:27;100559.72;;;13.72;88.26
11190;BME280;5651;50.926;4.718;2023-03-22T12:53:54;100572.69;;;13.78;88.18
11190;BME280;5651;50.926;4.718;2023-03-22T12:56:45;100568.59;;;13.66;88.74
11190;BME280;5651;50.926;4.718;2023-03-22T12:59:17;100556.69;;;13.51;90.07
11190;BME280;5651;50.926;4.718;2023-03-22T13:02:03;100553.38;;;13.43;90.40
11190;BME280;5651;50.926;4.718;2023-03-22T13:07:54;100542.91;;;13.43;91.53
11190;BME280;5651;50.926;4.718;2023-03-22T13:13:15;100551.22;;;13.62;91.32
11190;BME280;5651;50.926;4.718;2023-03-22T13:16:02;100553.13;;;13.54;92.03
11190;BME280;5651;50.926;4.718;2023-03-22T13:26:45;100535.94;;;13.42;92.78
11190;BME280;5651;50.926;4.718;2023-03-22T13:31:45;100539.50;;;13.38;92.06
11190;BME280;5651;50.926;4.718;2023-03-22T13:34:18;100533.16;;;13.50;90.77
11190;BME280;5651;50.926;4.718;2023-03-22T13:36:53;100546.22;;;13.51;90.82
11190;BME280;5651;50.926;4.718;2023-03-22T13:39:21;100540.03;;;13.55;90.60
11190;BME280;5651;50.926;4.718;2023-03-22T13:42:01;100539.25;;;13.52;91.64
11190;BME280;5651;50.926;4.718;2023-03-22T13:44:34;100540.16;;;13.49;91.22
11190;BME280;5651;50.926;4.718;2023-03-22T13:47:01;100534.13;;;13.45;91.97
11190;BME280;5651;50.926;4.718;2023-03-22T13:52:07;100532.28;;;13.51;91.03
11190;BME280;5651;50.926;4.718;2023-03-22T13:54:40;100521.97;;;13.43;91.82
11190;BME280;5651;50.926;4.718;2023-03-22T13:57:38;100521.06;;;13.44;91.96
11190;BME280;5651;50.926;4.718;2023-03-22T14:02:54;100533.03;;;13.56;91.52
11190;BME280;5651;50.926;4.718;2023-03-22T14:05:23;100526.25;;;13.47;92.49
11190;BME280;5651;50.926;4.718;2023-03-22T14:07:54;100527.16;;;13.46;93.31
11190;BME280;5651;50.926;4.718;2023-03-22T14:10:30;100527.97;;;13.48;93.30
11190;BME280;5651;50.926;4.718;2023-03-22T14:13:18;100521.13;;;13.42;93.95
11190;BME280;5651;50.926;4.718;2023-03-22T14:15:52;100517.75;;;13.34;95.57
11190;BME280;5651;50.926;4.718;2023-03-22T14:18:32;100519.63;;;13.29;96.37
11190;BME280;5651;50.926;4.718;2023-03-22T14:21:28;100512.50;;;13.36;96.82
11190;BME280;5651;50.926;4.718;2023-03-22T14:23:56;100496.72;;;13.40;96.02
11190;BME280;5651;50.926;4.718;2023-03-22T14:26:27;100508.13;;;13.36;96.65
11190;BME280;5651;50.926;4.718;2023-03-22T14:29:07;100492.31;;;13.42;97.51
11190;BME280;5651;50.926;4.718;2023-03-22T14:31:33;100507.22;;;13.37;97.91